sensor_id;sensor_type;location;lat;lon;timestamp;temperature;humidity
31747;DHT22;18319;48.974;8.462;2023-07-31T00:01:13;16.40;99.90
31747;DHT22;18319;48.974;8.462;2023-07-31T00:03:40;16.30;99.90
31747;DHT22;18319;48.974;8.462;2023-07-31T00:06:06;16.20;99.90
31747;DHT22;18319;48.974;8.462;2023-07-31T00:08:33;16.10;99.90
31747;DHT22;18319;48.974;8.462;2023-07-31T00:11:00;16.20;99.90
31747;DHT22;18319;48.974;8.462;2023-07-31T00:13:28;16.20;99.90
31747;DHT22;18319;48.974;8.462;2023-07-31T00:15:55;16.20;99.90
31747;DHT22;18319;48.974;8.462;2023-07-31T00:18:21;16.20;99.90
31747;DHT22;18319;48.974;8.462;2023-07-31T00:20:48;16.10;99.90
31747;DHT22;18319;48.974;8.462;2023-07-31T00:23:15;16.10;99.90
31747;DHT22;18319;48.974;8.462;2023-07-31T00:25:42;16.10;99.90
31747;DHT22;18319;48.974;8.462;2023-07-31T00:28:08;16.10;99.90
31747;DHT22;18319;48.974;8.462;2023-07-31T00:30:37;16.10;99.90
31747;DHT22;18319;48.974;8.462;2023-07-31T00:33:04;16.10;99.90
31747;DHT22;18319;48.974;8.462;2023-07-31T00:35:30;16.20;99.90
31747;DHT22;18319;48.974;8.462;2023-07-31T00:37:58;16.20;99.90
31747;DHT22;18319;48.974;8.462;2023-07-31T00:40:25;16.20;99.90
31747;DHT22;18319;48.974;8.462;2023-07-31T00:42:52;16.40;99.90
31747;DHT22;18319;48.974;8.462;2023-07-31T00:45:18;16.50;99.90
31747;DHT22;18319;48.974;8.462;2023-07-31T00:47:47;16.60;99.90
31747;DHT22;18319;48.974;8.462;2023-07-31T00:50:14;16.70;99.90
31747;DHT22;18319;48.974;8.462;2023-07-31T00:52:41;16.80;99.90
31747;DHT22;18319;48.974;8.462;2023-07-31T00:55:08;16.80;99.90
31747;DHT22;18319;48.974;8.462;2023-07-31T00:57:36;16.90;99.90
31747;DHT22;18319;48.974;8.462;2023-07-31T01:00:05;16.90;99.90
31747;DHT22;18319;48.974;8.462;2023-07-31T01:02:33;17.00;99.90
31747;DHT22;18319;48.974;8.462;2023-07-31T01:05:01;16.90;99.90
31747;DHT22;18319;48.974;8.462;2023-07-31T01:07:35;16.90;99.90
31747;DHT22;18319;48.974;8.462;2023-07-31T01:10:11;16.90;99.90
31747;DHT22;18319;48.974;8.462;2023-07-31T01:12:38;16.90;99.90
31747;DHT22;18319;48.974;8.462;2023-07-31T01:15:06;16.90;99.90
31747;DHT22;18319;48.974;8.462;2023-07-31T01:17:36;16.90;99.90
31747;DHT22;18319;48.974;8.462;2023-07-31T01:20:08;16.80;99.90
31747;DHT22;18319;48.974;8.462;2023-07-31T01:23:05;16.90;99.90
31747;DHT22;18319;48.974;8.462;2023-07-31T01:26:07;16.80;99.90
31747;DHT22;18319;48.974;8.462;2023-07-31T01:28:43;16.90;99.90
31747;DHT22;18319;48.974;8.462;2023-07-31T01:31:20;16.80;99.90
31747;DHT22;18319;48.974;8.462;2023-07-31T01:33:48;16.90;99.90
31747;DHT22;18319;48.974;8.462;2023-07-31T01:36:15;16.80;99.90
31747;DHT22;18319;48.974;8.462;2023-07-31T01:38:42;16.80;99.90
31747;DHT22;18319;48.974;8.462;2023-07-31T01:41:10;16.80;99.90
31747;DHT22;18319;48.974;8.462;2023-07-31T01:43:37;16.70;99.90
31747;DHT22;18319;48.974;8.462;2023-07-31T01:46:04;16.70;99.90
31747;DHT22;18319;48.974;8.462;2023-07-31T01:48:31;16.60;99.90
31747;DHT22;18319;48.974;8.462;2023-07-31T01:51:01;16.60;99.90
31747;DHT22;18319;48.974;8.462;2023-07-31T01:53:28;16.60;99.90
31747;DHT22;18319;48.974;8.462;2023-07-31T01:55:55;16.60;99.90
31747;DHT22;18319;48.974;8.462;2023-07-31T01:58:23;16.50;99.90
31747;DHT22;18319;48.974;8.462;2023-07-31T02:00:50;16.60;99.90
31747;DHT22;18319;48.974;8.462;2023-07-31T02:03:17;16.60;99.90
31747;DHT22;18319;48.974;8.462;2023-07-31T02:05:47;16.50;99.90
31747;DHT22;18319;48.974;8.462;2023-07-31T02:08:14;16.60;99.90
31747;DHT22;18319;48.974;8.462;2023-07-31T02:10:41;16.50;99.90
31747;DHT22;18319;48.974;8.462;2023-07-31T02:13:08;16.50;99.90
31747;DHT22;18319;48.974;8.462;2023-07-31T02:15:36;16.40;99.90
31747;DHT22;18319;48.974;8.462;2023-07-31T02:18:03;16.40;99.90
31747;DHT22;18319;48.974;8.462;2023-07-31T02:20:32;16.30;99.90
31747;DHT22;18319;48.974;8.462;2023-07-31T02:22:59;16.40;99.90
31747;DHT22;18319;48.974;8.462;2023-07-31T02:25:26;16.30;99.90
31747;DHT22;18319;48.974;8.462;2023-07-31T02:27:53;16.20;99.90
31747;DHT22;18319;48.974;8.462;2023-07-31T02:30:19;16.10;99.90
31747;DHT22;18319;48.974;8.462;2023-07-31T02:32:47;16.30;99.90
31747;DHT22;18319;48.974;8.462;2023-07-31T02:35:14;16.20;99.90
31747;DHT22;18319;48.974;8.462;2023-07-31T02:37:41;16.20;99.90
31747;DHT22;18319;48.974;8.462;2023-07-31T02:40:08;16.20;99.90
31747;DHT22;18319;48.974;8.462;2023-07-31T02:42:35;16.20;99.90
31747;DHT22;18319;48.974;8.462;2023-07-31T02:45:02;16.30;99.90
31747;DHT22;18319;48.974;8.462;2023-07-31T02:47:28;16.30;99.90
31747;DHT22;18319;48.974;8.462;2023-07-31T02:49:56;16.40;99.90
31747;DHT22;18319;48.974;8.462;2023-07-31T02:52:24;16.30;99.90
31747;DHT22;18319;48.974;8.462;2023-07-31T02:54:51;16.20;99.90
31747;DHT22;18319;48.974;8.462;2023-07-31T02:57:18;16.20;99.90
31747;DHT22;18319;48.974;8.462;2023-07-31T02:59:45;16.20;99.90
31747;DHT22;18319;48.974;8.462;2023-07-31T03:02:11;16.20;99.90
31747;DHT22;18319;48.974;8.462;2023-07-31T03:04:38;16.10;99.90
31747;DHT22;18319;48.974;8.462;2023-07-31T03:07:07;16.20;99.90
31747;DHT22;18319;48.974;8.462;2023-07-31T03:09:33;16.20;99.90
31747;DHT22;18319;48.974;8.462;2023-07-31T03:12:00;16.20;99.90
31747;DHT22;18319;48.974;8.462;2023-07-31T03:14:27;16.20;99.90
31747;DHT22;18319;48.974;8.462;2023-07-31T03:16:53;16.30;99.90
31747;DHT22;18319;48.974;8.462;2023-07-31T03:19:20;16.40;99.90
31747;DHT22;18319;48.974;8.462;2023-07-31T03:21:47;16.50;99.90
31747;DHT22;18319;48.974;8.462;2023-07-31T03:24:15;16.40;99.90
31747;DHT22;18319;48.974;8.462;2023-07-31T03:26:42;16.40;99.90
31747;DHT22;18319;48.974;8.462;2023-07-31T03:29:08;16.30;99.90
31747;DHT22;18319;48.974;8.462;2023-07-31T03:31:35;16.30;99.90
31747;DHT22;18319;48.974;8.462;2023-07-31T03:34:02;16.20;99.90
31747;DHT22;18319;48.974;8.462;2023-07-31T03:36:29;16.20;99.90
31747;DHT22;18319;48.974;8.462;2023-07-31T03:38:55;16.40;99.90
31747;DHT22;18319;48.974;8.462;2023-07-31T03:41:23;16.40;99.90
31747;DHT22;18319;48.974;8.462;2023-07-31T03:43:51;16.30;99.90
31747;DHT22;18319;48.974;8.462;2023-07-31T03:46:18;16.20;99.90
31747;DHT22;18319;48.974;8.462;2023-07-31T03:48:45;16.10;99.90
31747;DHT22;18319;48.974;8.462;2023-07-31T03:51:11;16.10;99.90
31747;DHT22;18319;48.974;8.462;2023-07-31T03:53:38;16.20;99.90
31747;DHT22;18319;48.974;8.462;2023-07-31T03:56:05;16.30;99.90
31747;DHT22;18319;48.974;8.462;2023-07-31T03:58:33;16.30;99.90
31747;DHT22;18319;48.974;8.462;2023-07-31T04:01:00;16.40;99.90
31747;DHT22;18319;48.974;8.462;2023-07-31T04:03:27;16.40;99.90
31747;DHT22;18319;48.974;8.462;2023-07-31T04:05:54;16.40;99.90
31747;DHT22;18319;48.974;8.462;2023-07-31T04:08:21;16.40;99.90
31747;DHT22;18319;48.974;8.462;2023-07-31T04:10:48;16.50;99.90
31747;DHT22;18319;48.974;8.462;2023-07-31T04:13:15;16.50;99.90
31747;DHT22;18319;48.974;8.462;2023-07-31T04:15:48;16.40;99.90
31747;DHT22;18319;48.974;8.462;2023-07-31T04:18:15;16.40;99.90
31747;DHT22;18319;48.974;8.462;2023-07-31T04:20:42;16.40;99.90
31747;DHT22;18319;48.974;8.462;2023-07-31T04:23:08;16.30;99.90
31747;DHT22;18319;48.974;8.462;2023-07-31T04:25:35;16.30;99.90
31747;DHT22;18319;48.974;8.462;2023-07-31T04:28:02;16.20;99.90
31747;DHT22;18319;48.974;8.462;2023-07-31T04:30:29;16.20;99.90
31747;DHT22;18319;48.974;8.462;2023-07-31T04:32:57;16.10;99.90
31747;DHT22;18319;48.974;8.462;2023-07-31T04:35:24;16.10;99.90
31747;DHT22;18319;48.974;8.462;2023-07-31T04:37:50;16.10;99.90
31747;DHT22;18319;48.974;8.462;2023-07-31T04:40:17;16.10;99.90
31747;DHT22;18319;48.974;8.462;2023-07-31T04:42:44;16.20;99.90
31747;DHT22;18319;48.974;8.462;2023-07-31T04:45:11;16.20;99.90
31747;DHT22;18319;48.974;8.462;2023-07-31T04:47:38;16.20;99.90
31747;DHT22;18319;48.974;8.462;2023-07-31T04:50:07;16.10;99.90
31747;DHT22;18319;48.974;8.462;2023-07-31T04:52:34;16.20;99.90
31747;DHT22;18319;48.974;8.462;2023-07-31T04:55:01;16.20;99.90
31747;DHT22;18319;48.974;8.462;2023-07-31T04:57:28;16.20;99.90
31747;DHT22;18319;48.974;8.462;2023-07-31T04:59:55;16.20;99.90
31747;DHT22;18319;48.974;8.462;2023-07-31T05:02:21;16.30;99.90
31747;DHT22;18319;48.974;8.462;2023-07-31T05:04:48;16.40;99.90
31747;DHT22;18319;48.974;8.462;2023-07-31T05:07:16;16.50;99.90
31747;DHT22;18319;48.974;8.462;2023-07-31T05:09:43;16.50;99.90
31747;DHT22;18319;48.974;8.462;2023-07-31T05:12:10;16.50;99.90
31747;DHT22;18319;48.974;8.462;2023-07-31T05:14:36;16.50;99.90
31747;DHT22;18319;48.974;8.462;2023-07-31T05:17:04;16.50;99.90
31747;DHT22;18319;48.974;8.462;2023-07-31T05:19:30;16.50;99.90
31747;DHT22;18319;48.974;8.462;2023-07-31T05:21:57;16.60;99.90
31747;DHT22;18319;48.974;8.462;2023-07-31T05:24:25;16.70;99.90
31747;DHT22;18319;48.974;8.462;2023-07-31T05:26:52;16.70;99.90
31747;DHT22;18319;48.974;8.462;2023-07-31T05:29:19;17.00;99.90
31747;DHT22;18319;48.974;8.462;2023-07-31T05:31:46;17.20;99.90
31747;DHT22;18319;48.974;8.462;2023-07-31T05:34:16;17.20;99.90
31747;DHT22;18319;48.974;8.462;2023-07-31T05:36:42;17.10;99.90
31747;DHT22;18319;48.974;8.462;2023-07-31T05:39:09;17.20;99.90
31747;DHT22;18319;48.974;8.462;2023-07-31T05:41:37;17.40;99.90
31747;DHT22;18319;48.974;8.462;2023-07-31T05:44:04;17.90;99.90
31747;DHT22;18319;48.974;8.462;2023-07-31T05:46:31;18.10;99.90
31747;DHT22;18319;48.974;8.462;2023-07-31T05:48:58;18.30;99.90
31747;DHT22;18319;48.974;8.462;2023-07-31T05:51:26;18.20;99.90
31747;DHT22;18319;48.974;8.462;2023-07-31T05:53:53;18.40;99.90
31747;DHT22;18319;48.974;8.462;2023-07-31T05:56:20;18.40;99.90
31747;DHT22;18319;48.974;8.462;2023-07-31T05:58:48;18.40;99.90
31747;DHT22;18319;48.974;8.462;2023-07-31T06:01:16;18.60;99.90
31747;DHT22;18319;48.974;8.462;2023-07-31T06:03:43;18.60;99.90
31747;DHT22;18319;48.974;8.462;2023-07-31T06:06:09;18.60;99.90
31747;DHT22;18319;48.974;8.462;2023-07-31T06:08:36;18.50;99.90
31747;DHT22;18319;48.974;8.462;2023-07-31T06:11:03;18.70;99.90
31747;DHT22;18319;48.974;8.462;2023-07-31T06:13:30;18.70;99.90
31747;DHT22;18319;48.974;8.462;2023-07-31T06:15:58;18.90;99.90
31747;DHT22;18319;48.974;8.462;2023-07-31T06:18:25;19.10;99.90
31747;DHT22;18319;48.974;8.462;2023-07-31T06:20:52;19.30;99.90
31747;DHT22;18319;48.974;8.462;2023-07-31T06:23:19;19.30;99.90
31747;DHT22;18319;48.974;8.462;2023-07-31T06:25:46;19.20;99.90
31747;DHT22;18319;48.974;8.462;2023-07-31T06:28:12;19.10;99.90
31747;DHT22;18319;48.974;8.462;2023-07-31T06:30:39;19.10;99.90
31747;DHT22;18319;48.974;8.462;2023-07-31T06:33:08;19.30;99.90
31747;DHT22;18319;48.974;8.462;2023-07-31T06:35:35;19.50;99.90
31747;DHT22;18319;48.974;8.462;2023-07-31T06:38:01;19.70;99.90
31747;DHT22;18319;48.974;8.462;2023-07-31T06:40:29;19.90;99.90
31747;DHT22;18319;48.974;8.462;2023-07-31T06:42:55;20.10;99.90
31747;DHT22;18319;48.974;8.462;2023-07-31T06:45:22;20.20;99.90
31747;DHT22;18319;48.974;8.462;2023-07-31T06:47:49;20.30;99.90
31747;DHT22;18319;48.974;8.462;2023-07-31T06:50:17;20.50;99.90
31747;DHT22;18319;48.974;8.462;2023-07-31T06:52:44;20.60;99.90
31747;DHT22;18319;48.974;8.462;2023-07-31T06:55:19;20.70;99.90
31747;DHT22;18319;48.974;8.462;2023-07-31T06:57:47;20.70;99.90
31747;DHT22;18319;48.974;8.462;2023-07-31T07:00:14;20.70;99.90
31747;DHT22;18319;48.974;8.462;2023-07-31T07:02:42;20.80;99.90
31747;DHT22;18319;48.974;8.462;2023-07-31T07:05:08;20.80;99.90
31747;DHT22;18319;48.974;8.462;2023-07-31T07:07:37;20.70;99.90
31747;DHT22;18319;48.974;8.462;2023-07-31T07:10:04;20.40;99.90
31747;DHT22;18319;48.974;8.462;2023-07-31T07:12:32;20.30;99.90
31747;DHT22;18319;48.974;8.462;2023-07-31T07:14:59;20.30;99.90
31747;DHT22;18319;48.974;8.462;2023-07-31T07:17:27;20.30;99.90
31747;DHT22;18319;48.974;8.462;2023-07-31T07:19:54;20.40;99.90
31747;DHT22;18319;48.974;8.462;2023-07-31T07:22:21;20.70;99.90
31747;DHT22;18319;48.974;8.462;2023-07-31T07:24:49;20.70;99.90
31747;DHT22;18319;48.974;8.462;2023-07-31T07:27:16;20.60;99.90
31747;DHT22;18319;48.974;8.462;2023-07-31T07:29:43;20.70;99.90
31747;DHT22;18319;48.974;8.462;2023-07-31T07:32:09;20.50;99.90
31747;DHT22;18319;48.974;8.462;2023-07-31T07:34:37;20.90;99.90
31747;DHT22;18319;48.974;8.462;2023-07-31T07:37:05;21.30;99.90
31747;DHT22;18319;48.974;8.462;2023-07-31T07:39:32;21.70;99.90
31747;DHT22;18319;48.974;8.462;2023-07-31T07:42:00;21.60;99.90
31747;DHT22;18319;48.974;8.462;2023-07-31T07:44:26;21.40;99.90
31747;DHT22;18319;48.974;8.462;2023-07-31T07:46:53;21.30;99.90
31747;DHT22;18319;48.974;8.462;2023-07-31T07:49:20;21.00;99.90
31747;DHT22;18319;48.974;8.462;2023-07-31T07:51:48;21.20;99.90
31747;DHT22;18319;48.974;8.462;2023-07-31T07:54:15;21.50;99.90
31747;DHT22;18319;48.974;8.462;2023-07-31T07:56:42;21.60;99.90
31747;DHT22;18319;48.974;8.462;2023-07-31T07:59:10;21.90;99.90
31747;DHT22;18319;48.974;8.462;2023-07-31T08:01:37;22.00;99.90
31747;DHT22;18319;48.974;8.462;2023-07-31T08:04:04;22.10;99.90
31747;DHT22;18319;48.974;8.462;2023-07-31T08:06:31;22.00;99.90
31747;DHT22;18319;48.974;8.462;2023-07-31T08:08:58;21.80;99.90
31747;DHT22;18319;48.974;8.462;2023-07-31T08:11:30;21.90;99.90
31747;DHT22;18319;48.974;8.462;2023-07-31T08:13:57;21.40;99.90
31747;DHT22;18319;48.974;8.462;2023-07-31T08:16:25;21.60;99.90
31747;DHT22;18319;48.974;8.462;2023-07-31T08:18:52;21.30;99.90
31747;DHT22;18319;48.974;8.462;2023-07-31T08:21:19;21.70;99.90
31747;DHT22;18319;48.974;8.462;2023-07-31T08:23:46;21.90;99.90
31747;DHT22;18319;48.974;8.462;2023-07-31T08:26:15;22.10;99.90
31747;DHT22;18319;48.974;8.462;2023-07-31T08:28:42;22.40;99.90
31747;DHT22;18319;48.974;8.462;2023-07-31T08:31:08;22.20;99.90
31747;DHT22;18319;48.974;8.462;2023-07-31T08:33:37;22.10;99.90
31747;DHT22;18319;48.974;8.462;2023-07-31T08:36:05;22.10;99.90
31747;DHT22;18319;48.974;8.462;2023-07-31T08:38:32;22.30;99.90
31747;DHT22;18319;48.974;8.462;2023-07-31T08:40:59;22.60;99.90
31747;DHT22;18319;48.974;8.462;2023-07-31T08:43:26;23.10;99.90
31747;DHT22;18319;48.974;8.462;2023-07-31T08:45:54;23.20;99.90
31747;DHT22;18319;48.974;8.462;2023-07-31T08:48:21;23.20;99.90
31747;DHT22;18319;48.974;8.462;2023-07-31T08:50:51;23.80;99.90
31747;DHT22;18319;48.974;8.462;2023-07-31T08:53:18;24.50;99.90
31747;DHT22;18319;48.974;8.462;2023-07-31T08:55:45;24.30;99.90
31747;DHT22;18319;48.974;8.462;2023-07-31T08:58:12;24.50;99.90
31747;DHT22;18319;48.974;8.462;2023-07-31T09:00:40;24.30;99.90
31747;DHT22;18319;48.974;8.462;2023-07-31T09:03:13;24.30;99.90
31747;DHT22;18319;48.974;8.462;2023-07-31T09:05:43;24.30;99.90
31747;DHT22;18319;48.974;8.462;2023-07-31T09:08:12;24.40;99.90
31747;DHT22;18319;48.974;8.462;2023-07-31T09:10:43;24.60;99.90
31747;DHT22;18319;48.974;8.462;2023-07-31T09:13:11;24.50;99.90
31747;DHT22;18319;48.974;8.462;2023-07-31T09:15:39;23.90;99.90
31747;DHT22;18319;48.974;8.462;2023-07-31T09:18:07;23.70;99.90
31747;DHT22;18319;48.974;8.462;2023-07-31T09:20:34;24.30;99.90
31747;DHT22;18319;48.974;8.462;2023-07-31T09:23:08;24.70;99.90
31747;DHT22;18319;48.974;8.462;2023-07-31T09:25:37;24.90;99.90
31747;DHT22;18319;48.974;8.462;2023-07-31T09:28:05;25.20;99.90
31747;DHT22;18319;48.974;8.462;2023-07-31T09:30:44;25.30;99.90
31747;DHT22;18319;48.974;8.462;2023-07-31T09:33:11;25.50;99.90
31747;DHT22;18319;48.974;8.462;2023-07-31T09:35:38;25.60;99.90
31747;DHT22;18319;48.974;8.462;2023-07-31T09:38:08;25.60;99.90
31747;DHT22;18319;48.974;8.462;2023-07-31T09:40:38;25.40;99.90
31747;DHT22;18319;48.974;8.462;2023-07-31T09:43:06;25.50;99.90
31747;DHT22;18319;48.974;8.462;2023-07-31T09:45:34;25.20;99.90
31747;DHT22;18319;48.974;8.462;2023-07-31T09:48:01;25.50;99.90
31747;DHT22;18319;48.974;8.462;2023-07-31T09:50:29;25.50;99.90
31747;DHT22;18319;48.974;8.462;2023-07-31T09:52:56;25.40;99.90
31747;DHT22;18319;48.974;8.462;2023-07-31T09:55:24;25.40;99.90
31747;DHT22;18319;48.974;8.462;2023-07-31T09:57:54;25.50;99.90
31747;DHT22;18319;48.974;8.462;2023-07-31T10:00:24;25.90;99.90
31747;DHT22;18319;48.974;8.462;2023-07-31T10:02:54;25.90;99.90
31747;DHT22;18319;48.974;8.462;2023-07-31T10:05:24;25.50;99.90
31747;DHT22;18319;48.974;8.462;2023-07-31T10:07:55;25.90;99.90
31747;DHT22;18319;48.974;8.462;2023-07-31T10:10:22;25.90;99.90
31747;DHT22;18319;48.974;8.462;2023-07-31T10:12:49;25.80;99.90
31747;DHT22;18319;48.974;8.462;2023-07-31T10:15:19;25.50;99.90
31747;DHT22;18319;48.974;8.462;2023-07-31T10:17:47;25.30;99.90
31747;DHT22;18319;48.974;8.462;2023-07-31T10:20:15;25.00;99.90
31747;DHT22;18319;48.974;8.462;2023-07-31T10:22:43;25.10;99.90
31747;DHT22;18319;48.974;8.462;2023-07-31T10:25:11;25.50;99.90
31747;DHT22;18319;48.974;8.462;2023-07-31T10:27:38;25.30;99.90
31747;DHT22;18319;48.974;8.462;2023-07-31T10:30:08;25.10;99.90
31747;DHT22;18319;48.974;8.462;2023-07-31T10:32:38;24.90;99.90
31747;DHT22;18319;48.974;8.462;2023-07-31T10:35:06;24.80;99.90
31747;DHT22;18319;48.974;8.462;2023-07-31T10:37:37;24.40;99.90
31747;DHT22;18319;48.974;8.462;2023-07-31T10:40:05;24.20;99.90
31747;DHT22;18319;48.974;8.462;2023-07-31T10:42:34;23.90;99.90
31747;DHT22;18319;48.974;8.462;2023-07-31T10:45:03;24.00;99.90
31747;DHT22;18319;48.974;8.462;2023-07-31T10:47:30;23.90;99.90
31747;DHT22;18319;48.974;8.462;2023-07-31T10:50:18;23.70;99.90
31747;DHT22;18319;48.974;8.462;2023-07-31T10:52:49;24.10;99.90
31747;DHT22;18319;48.974;8.462;2023-07-31T10:55:25;24.30;99.90
31747;DHT22;18319;48.974;8.462;2023-07-31T10:57:52;24.30;99.90
31747;DHT22;18319;48.974;8.462;2023-07-31T11:00:22;24.10;99.90
31747;DHT22;18319;48.974;8.462;2023-07-31T11:03:00;24.10;99.90
31747;DHT22;18319;48.974;8.462;2023-07-31T11:05:46;24.50;99.90
31747;DHT22;18319;48.974;8.462;2023-07-31T11:08:14;24.40;99.90
31747;DHT22;18319;48.974;8.462;2023-07-31T11:10:42;25.00;99.90
31747;DHT22;18319;48.974;8.462;2023-07-31T11:13:10;24.90;99.90
31747;DHT22;18319;48.974;8.462;2023-07-31T11:15:37;24.80;99.90
31747;DHT22;18319;48.974;8.462;2023-07-31T11:18:04;24.80;99.90
31747;DHT22;18319;48.974;8.462;2023-07-31T11:20:34;24.90;99.90
31747;DHT22;18319;48.974;8.462;2023-07-31T11:23:04;25.30;99.90
31747;DHT22;18319;48.974;8.462;2023-07-31T11:25:32;25.30;99.90
31747;DHT22;18319;48.974;8.462;2023-07-31T11:28:03;25.40;99.90
31747;DHT22;18319;48.974;8.462;2023-07-31T11:30:29;24.90;99.90
31747;DHT22;18319;48.974;8.462;2023-07-31T11:35:26;25.00;99.90
31747;DHT22;18319;48.974;8.462;2023-07-31T11:37:53;25.00;99.90
31747;DHT22;18319;48.974;8.462;2023-07-31T11:40:21;24.90;99.90
31747;DHT22;18319;48.974;8.462;2023-07-31T11:42:48;24.50;99.90
31747;DHT22;18319;48.974;8.462;2023-07-31T11:45:14;24.50;99.90
31747;DHT22;18319;48.974;8.462;2023-07-31T11:47:41;24.40;99.90
31747;DHT22;18319;48.974;8.462;2023-07-31T11:50:10;24.40;99.90
31747;DHT22;18319;48.974;8.462;2023-07-31T11:52:40;24.10;99.90
31747;DHT22;18319;48.974;8.462;2023-07-31T11:55:09;24.50;99.90
31747;DHT22;18319;48.974;8.462;2023-07-31T11:57:39;24.30;99.90
31747;DHT22;18319;48.974;8.462;2023-07-31T12:00:08;24.70;99.90
31747;DHT22;18319;48.974;8.462;2023-07-31T12:02:36;24.80;99.90
31747;DHT22;18319;48.974;8.462;2023-07-31T12:05:05;24.70;99.90
31747;DHT22;18319;48.974;8.462;2023-07-31T12:07:44;24.50;99.90
31747;DHT22;18319;48.974;8.462;2023-07-31T12:10:11;24.40;99.90
31747;DHT22;18319;48.974;8.462;2023-07-31T12:12:39;24.60;99.90
31747;DHT22;18319;48.974;8.462;2023-07-31T12:15:14;24.30;99.90
31747;DHT22;18319;48.974;8.462;2023-07-31T12:17:41;24.60;99.90
31747;DHT22;18319;48.974;8.462;2023-07-31T12:20:09;25.20;99.90
31747;DHT22;18319;48.974;8.462;2023-07-31T12:22:36;25.40;99.90
31747;DHT22;18319;48.974;8.462;2023-07-31T12:25:04;25.50;99.90
31747;DHT22;18319;48.974;8.462;2023-07-31T12:27:33;25.50;99.90
31747;DHT22;18319;48.974;8.462;2023-07-31T12:30:02;25.60;99.90
31747;DHT22;18319;48.974;8.462;2023-07-31T12:32:30;25.00;99.90
31747;DHT22;18319;48.974;8.462;2023-07-31T12:34:59;25.30;99.90
31747;DHT22;18319;48.974;8.462;2023-07-31T12:37:28;25.00;99.90
31747;DHT22;18319;48.974;8.462;2023-07-31T12:39:55;25.50;99.90
31747;DHT22;18319;48.974;8.462;2023-07-31T12:42:26;25.40;99.90
31747;DHT22;18319;48.974;8.462;2023-07-31T12:44:53;25.20;99.90
31747;DHT22;18319;48.974;8.462;2023-07-31T12:47:21;25.00;99.90
31747;DHT22;18319;48.974;8.462;2023-07-31T12:49:47;24.80;99.90
31747;DHT22;18319;48.974;8.462;2023-07-31T12:52:14;24.80;99.90
31747;DHT22;18319;48.974;8.462;2023-07-31T12:54:41;24.70;99.90
31747;DHT22;18319;48.974;8.462;2023-07-31T12:57:07;24.80;99.90
31747;DHT22;18319;48.974;8.462;2023-07-31T12:59:34;24.70;99.90
31747;DHT22;18319;48.974;8.462;2023-07-31T13:02:01;24.80;99.90
31747;DHT22;18319;48.974;8.462;2023-07-31T13:04:29;25.00;99.90
31747;DHT22;18319;48.974;8.462;2023-07-31T13:06:56;25.10;99.90
31747;DHT22;18319;48.974;8.462;2023-07-31T13:09:23;25.30;99.90
31747;DHT22;18319;48.974;8.462;2023-07-31T13:11:50;25.00;99.90
31747;DHT22;18319;48.974;8.462;2023-07-31T13:14:17;25.00;99.90
31747;DHT22;18319;48.974;8.462;2023-07-31T13:16:43;24.90;99.90
31747;DHT22;18319;48.974;8.462;2023-07-31T13:19:10;24.70;99.90
31747;DHT22;18319;48.974;8.462;2023-07-31T13:21:38;24.60;99.90
31747;DHT22;18319;48.974;8.462;2023-07-31T13:24:05;24.70;99.90
31747;DHT22;18319;48.974;8.462;2023-07-31T13:26:32;25.10;99.90
31747;DHT22;18319;48.974;8.462;2023-07-31T13:28:59;25.00;99.90
31747;DHT22;18319;48.974;8.462;2023-07-31T13:31:26;25.20;99.90
31747;DHT22;18319;48.974;8.462;2023-07-31T13:33:53;24.90;99.90
31747;DHT22;18319;48.974;8.462;2023-07-31T13:36:19;25.10;99.90
31747;DHT22;18319;48.974;8.462;2023-07-31T13:38:48;25.00;99.90
31747;DHT22;18319;48.974;8.462;2023-07-31T13:41:14;24.80;99.90
31747;DHT22;18319;48.974;8.462;2023-07-31T13:43:41;24.80;99.90
31747;DHT22;18319;48.974;8.462;2023-07-31T13:46:08;24.70;99.90
31747;DHT22;18319;48.974;8.462;2023-07-31T13:48:36;24.70;99.90
31747;DHT22;18319;48.974;8.462;2023-07-31T13:51:03;24.60;99.90
31747;DHT22;18319;48.974;8.462;2023-07-31T13:53:30;24.50;99.90
31747;DHT22;18319;48.974;8.462;2023-07-31T13:55:59;24.60;99.90
31747;DHT22;18319;48.974;8.462;2023-07-31T13:58:25;24.50;99.90
31747;DHT22;18319;48.974;8.462;2023-07-31T14:00:52;24.60;99.90
31747;DHT22;18319;48.974;8.462;2023-07-31T14:03:19;24.70;99.90
31747;DHT22;18319;48.974;8.462;2023-07-31T14:05:46;24.80;99.90
31747;DHT22;18319;48.974;8.462;2023-07-31T14:08:13;25.00;99.90
31747;DHT22;18319;48.974;8.462;2023-07-31T14:10:39;25.00;99.90
31747;DHT22;18319;48.974;8.462;2023-07-31T14:13:07;24.80;99.90
31747;DHT22;18319;48.974;8.462;2023-07-31T14:15:34;24.70;99.90
31747;DHT22;18319;48.974;8.462;2023-07-31T14:18:01;24.90;99.90
31747;DHT22;18319;48.974;8.462;2023-07-31T14:20:28;24.80;99.90
31747;DHT22;18319;48.974;8.462;2023-07-31T14:22:55;24.80;99.90
31747;DHT22;18319;48.974;8.462;2023-07-31T14:25:22;24.80;99.90
31747;DHT22;18319;48.974;8.462;2023-07-31T14:27:48;24.90;99.90
31747;DHT22;18319;48.974;8.462;2023-07-31T14:30:17;24.60;99.90
31747;DHT22;18319;48.974;8.462;2023-07-31T14:32:44;24.10;99.90
31747;DHT22;18319;48.974;8.462;2023-07-31T14:35:10;24.20;99.90
31747;DHT22;18319;48.974;8.462;2023-07-31T14:37:38;24.00;99.90
31747;DHT22;18319;48.974;8.462;2023-07-31T14:40:06;24.30;99.90
31747;DHT22;18319;48.974;8.462;2023-07-31T14:42:34;24.30;99.90
31747;DHT22;18319;48.974;8.462;2023-07-31T14:45:01;24.20;99.90
31747;DHT22;18319;48.974;8.462;2023-07-31T14:47:29;24.50;99.90
31747;DHT22;18319;48.974;8.462;2023-07-31T14:49:56;24.70;99.90
31747;DHT22;18319;48.974;8.462;2023-07-31T14:52:23;24.60;99.90
31747;DHT22;18319;48.974;8.462;2023-07-31T14:54:50;24.60;99.90
31747;DHT22;18319;48.974;8.462;2023-07-31T14:57:17;24.50;99.90
31747;DHT22;18319;48.974;8.462;2023-07-31T14:59:44;24.50;99.90
31747;DHT22;18319;48.974;8.462;2023-07-31T15:02:11;24.50;99.90
31747;DHT22;18319;48.974;8.462;2023-07-31T15:04:39;24.30;99.90
31747;DHT22;18319;48.974;8.462;2023-07-31T15:07:06;24.40;99.90
31747;DHT22;18319;48.974;8.462;2023-07-31T15:09:33;24.60;99.90
31747;DHT22;18319;48.974;8.462;2023-07-31T15:12:00;24.40;99.90
31747;DHT22;18319;48.974;8.462;2023-07-31T15:14:27;24.60;99.90
31747;DHT22;18319;48.974;8.462;2023-07-31T15:16:56;24.70;99.90
31747;DHT22;18319;48.974;8.462;2023-07-31T15:19:23;24.90;99.90
31747;DHT22;18319;48.974;8.462;2023-07-31T15:21:51;24.90;99.90
31747;DHT22;18319;48.974;8.462;2023-07-31T15:24:18;25.10;99.90
31747;DHT22;18319;48.974;8.462;2023-07-31T15:26:45;24.80;99.90
31747;DHT22;18319;48.974;8.462;2023-07-31T15:29:12;24.70;99.90
31747;DHT22;18319;48.974;8.462;2023-07-31T15:31:44;24.60;99.90
31747;DHT22;18319;48.974;8.462;2023-07-31T15:34:12;24.70;99.90
31747;DHT22;18319;48.974;8.462;2023-07-31T15:36:39;24.70;99.90